Time;durP1;ratioP1;P1;durP2;ratioP2;P2;SDS_P1;SDS_P2;PMS_P1;PMS_P2;Temp;Humidity;BMP_temperature;BMP_pressure;BME280_temperature;BME280_humidity;BME280_pressure;Samples;Min_cycle;Max_cycle;Signal;HPM_P1;HPM_P2
2023/07/06 00:02:11;;;;;;;0.52;0.40;;;13.70;99.90;;;;;;4976531;28;20215;-76
2023/07/06 00:04:42;;;;;;;0.50;0.50;;;13.80;99.90;;;;;;4974599;28;20188;-76
2023/07/06 00:07:20;;;;;;;0.52;0.52;;;13.90;99.90;;;;;;4988953;28;20683;-75
2023/07/06 00:09:52;;;;;;;0.50;0.50;;;14.00;99.90;;;;;;4974636;28;20188;-75
2023/07/06 00:12:24;;;;;;;1.30;0.70;;;14.10;99.90;;;;;;4983531;28;20254;-76
2023/07/06 00:14:55;;;;;;;0.77;0.55;;;14.10;99.90;;;;;;4993702;28;20599;-76
2023/07/06 00:17:28;;;;;;;0.70;0.60;;;14.20;99.90;;;;;;4993793;28;20199;-76
2023/07/06 00:19:59;;;;;;;2.45;0.70;;;14.20;99.90;;;;;;4986439;28;20664;-74
2023/07/06 00:22:30;;;;;;;0.55;0.55;;;14.30;99.90;;;;;;4984772;28;20223;-76
2023/07/06 00:25:01;;;;;;;1.08;0.50;;;14.30;99.90;;;;;;4987669;28;20202;-75
2023/07/06 00:27:33;;;;;;;0.70;0.70;;;14.40;99.90;;;;;;4982207;28;20278;-76
2023/07/06 00:30:15;;;;;;;1.67;0.70;;;14.40;99.90;;;;;;4990098;28;20705;-74
2023/07/06 00:32:51;;;;;;;0.75;0.60;;;14.50;99.90;;;;;;4992446;28;20202;-77
2023/07/06 00:35:22;;;;;;;0.88;0.80;;;14.50;99.90;;;;;;4988897;28;20203;-77
2023/07/06 00:37:54;;;;;;;1.13;0.60;;;14.60;99.90;;;;;;4990779;28;20199;-77
2023/07/06 00:40:26;;;;;;;1.42;0.80;;;14.70;99.90;;;;;;4992872;28;20287;-76
2023/07/06 00:42:57;;;;;;;0.60;0.60;;;14.90;99.90;;;;;;4990882;28;20278;-75
2023/07/06 00:45:28;;;;;;;0.98;0.60;;;15.00;99.90;;;;;;4989860;28;20663;-75
2023/07/06 00:48:02;;;;;;;0.40;0.40;;;15.00;99.90;;;;;;4992523;28;20203;-75
2023/07/06 00:50:35;;;;;;;1.38;0.50;;;15.10;99.90;;;;;;4985016;28;20286;-74
2023/07/06 00:53:09;;;;;;;0.73;0.60;;;15.20;99.90;;;;;;4989858;28;20200;-75
2023/07/06 00:55:42;;;;;;;0.50;0.50;;;15.20;99.90;;;;;;4990889;28;20219;-75
2023/07/06 00:58:18;;;;;;;0.80;0.60;;;15.20;99.90;;;;;;4991123;28;20246;-75
2023/07/06 01:00:49;;;;;;;0.75;0.50;;;15.20;99.90;;;;;;4989775;28;20611;-76
2023/07/06 01:03:23;;;;;;;1.00;0.60;;;15.20;99.90;;;;;;4991832;28;20274;-76
2023/07/06 01:06:00;;;;;;;0.77;0.77;;;15.20;99.90;;;;;;4994185;28;20572;-76
2023/07/06 01:08:35;;;;;;;1.23;0.63;;;15.20;99.90;;;;;;4994325;28;20258;-75
2023/07/06 01:11:08;;;;;;;1.42;0.40;;;15.20;99.90;;;;;;4993680;28;20203;-76
2023/07/06 01:13:39;;;;;;;1.75;1.08;;;15.30;99.90;;;;;;4996835;28;20223;-75
2023/07/06 01:16:18;;;;;;;0.60;0.60;;;15.40;99.90;;;;;;4993997;28;20246;-76
2023/07/06 01:18:58;;;;;;;2.08;0.63;;;15.50;99.90;;;;;;4994909;28;20573;-76
2023/07/06 01:21:39;;;;;;;5.55;1.00;;;15.50;99.90;;;;;;4990853;28;20210;-76
2023/07/06 01:24:40;;;;;;;4.32;0.73;;;15.50;99.90;;;;;;4991873;28;20223;-76
2023/07/06 01:27:32;;;;;;;3.78;0.60;;;15.50;99.90;;;;;;4997272;28;20657;-75
2023/07/06 01:30:32;;;;;;;2.38;0.80;;;15.70;99.90;;;;;;4997150;28;20187;-76
2023/07/06 01:33:10;;;;;;;1.20;0.70;;;15.90;99.90;;;;;;4988600;28;20204;-76
2023/07/06 01:35:47;;;;;;;2.30;0.73;;;15.90;99.90;;;;;;4997018;28;20270;-75
2023/07/06 01:38:18;;;;;;;1.63;0.70;;;15.90;99.90;;;;;;4995625;28;20204;-76
2023/07/06 01:40:49;;;;;;;3.40;0.90;;;16.00;99.90;;;;;;4994567;28;20207;-76
2023/07/06 01:43:21;;;;;;;0.85;0.73;;;15.90;99.90;;;;;;4996359;28;20219;-76
2023/07/06 01:45:53;;;;;;;0.47;0.47;;;15.90;99.90;;;;;;4996573;28;20683;-76
2023/07/06 01:48:26;;;;;;;1.08;0.50;;;15.90;99.90;;;;;;4996424;28;20188;-75
2023/07/06 01:51:08;;;;;;;2.13;0.60;;;16.00;99.90;;;;;;4996462;28;20555;-76
2023/07/06 01:53:44;;;;;;;0.50;0.40;;;16.00;99.90;;;;;;4995245;28;20758;-76
2023/07/06 01:56:21;;;;;;;2.28;0.60;;;16.10;99.90;;;;;;4996082;28;20262;-77
2023/07/06 01:58:57;;;;;;;1.40;0.50;;;16.20;99.90;;;;;;4996046;28;20262;-76
2023/07/06 02:01:30;;;;;;;0.40;0.40;;;16.30;99.90;;;;;;4995001;28;20241;-76
2023/07/06 02:04:06;;;;;;;1.40;0.30;;;16.30;99.90;;;;;;4994729;28;20216;-76
2023/07/06 02:06:38;;;;;;;1.10;0.40;;;16.40;99.90;;;;;;4996022;28;20200;-75
2023/07/06 02:09:09;;;;;;;0.40;0.40;;;16.30;99.90;;;;;;4996040;28;20644;-76
2023/07/06 02:11:40;;;;;;;1.45;0.80;;;16.20;99.90;;;;;;4995189;28;20202;-75
2023/07/06 02:14:11;;;;;;;3.17;0.63;;;16.10;99.90;;;;;;4995231;28;20202;-76
2023/07/06 02:16:42;;;;;;;1.90;0.50;;;16.10;99.90;;;;;;4995727;28;20211;-77
2023/07/06 02:19:16;;;;;;;0.50;0.50;;;16.30;99.90;;;;;;4995812;28;20223;-76
2023/07/06 02:21:47;;;;;;;0.50;0.43;;;16.30;99.90;;;;;;4996918;28;20707;-76
2023/07/06 02:24:18;;;;;;;1.20;0.45;;;16.40;99.90;;;;;;4994850;28;20686;-78
2023/07/06 02:26:49;;;;;;;1.33;0.60;;;16.40;99.90;;;;;;4994001;28;20211;-76
2023/07/06 02:29:22;;;;;;;3.03;0.60;;;16.60;99.90;;;;;;4995922;28;20207;-76
2023/07/06 02:31:53;;;;;;;0.50;0.50;;;16.70;99.90;;;;;;4994768;28;20207;-76
2023/07/06 02:34:26;;;;;;;2.88;0.80;;;16.70;99.90;;;;;;4995430;28;20214;-76
2023/07/06 02:36:58;;;;;;;0.85;0.45;;;16.70;99.90;;;;;;4995512;28;20196;-76
2023/07/06 02:39:29;;;;;;;0.63;0.63;;;16.80;99.90;;;;;;4994295;28;20580;-76
2023/07/06 02:42:01;;;;;;;2.03;0.50;;;16.90;99.90;;;;;;4995443;28;20282;-76
2023/07/06 02:44:32;;;;;;;1.02;0.57;;;16.80;99.90;;;;;;4993082;28;20675;-76
2023/07/06 02:47:03;;;;;;;1.25;0.60;;;17.00;99.90;;;;;;4994105;28;20195;-75
2023/07/06 02:49:36;;;;;;;1.30;0.68;;;17.00;99.90;;;;;;4994524;28;20207;-76
2023/07/06 02:52:08;;;;;;;1.63;0.70;;;17.10;99.90;;;;;;4994138;28;20202;-76
2023/07/06 02:54:39;;;;;;;1.20;0.68;;;17.20;99.90;;;;;;4994976;28;20198;-75
2023/07/06 02:57:10;;;;;;;0.50;0.50;;;17.30;99.90;;;;;;4995137;28;20199;-76
2023/07/06 02:59:41;;;;;;;2.53;0.60;;;17.40;99.90;;;;;;4994032;28;20210;-76
2023/07/06 03:02:12;;;;;;;2.45;0.70;;;17.40;99.90;;;;;;4995059;28;20192;-77
2023/07/06 03:04:46;;;;;;;0.82;0.60;;;17.40;99.90;;;;;;4994418;28;20573;-76
2023/07/06 03:07:18;;;;;;;0.85;0.50;;;17.40;99.90;;;;;;4990830;28;20202;-75
2023/07/06 03:09:49;;;;;;;1.23;0.50;;;17.40;99.90;;;;;;4993704;28;20211;-76
2023/07/06 03:12:23;;;;;;;0.85;0.50;;;17.30;99.90;;;;;;4994876;28;20215;-75
2023/07/06 03:14:54;;;;;;;0.70;0.60;;;17.30;99.90;;;;;;4995214;28;20191;-76
2023/07/06 03:17:26;;;;;;;0.60;0.60;;;17.30;99.90;;;;;;4995070;28;20196;-76
2023/07/06 03:19:59;;;;;;;1.25;0.60;;;17.30;99.90;;;;;;4995051;28;20214;-76
2023/07/06 03:22:31;;;;;;;0.90;0.55;;;17.30;99.90;;;;;;4992690;28;20244;-76
2023/07/06 03:25:02;;;;;;;1.05;0.50;;;17.30;99.90;;;;;;4993700;28;20227;-75
2023/07/06 03:27:33;;;;;;;0.52;0.40;;;17.30;99.90;;;;;;4994562;28;20195;-76
2023/07/06 03:30:05;;;;;;;1.98;0.50;;;17.30;99.90;;;;;;4993833;28;20195;-76
2023/07/06 03:32:37;;;;;;;1.95;0.50;;;17.40;99.90;;;;;;4994928;28;20624;-76
2023/07/06 03:35:12;;;;;;;1.75;0.45;;;17.40;99.90;;;;;;4993571;28;20199;-76
2023/07/06 03:37:45;;;;;;;2.67;0.52;;;17.40;99.90;;;;;;4994101;28;20649;-77
2023/07/06 03:40:17;;;;;;;0.73;0.70;;;17.40;99.90;;;;;;4993223;28;20199;-76
2023/07/06 03:42:49;;;;;;;0.82;0.65;;;17.40;99.90;;;;;;4992722;28;20199;-77
2023/07/06 03:45:21;;;;;;;0.47;0.45;;;17.50;99.90;;;;;;4994369;28;20203;-77
2023/07/06 03:47:52;;;;;;;0.50;0.50;;;17.50;99.90;;;;;;4993570;28;20648;-79
2023/07/06 03:50:25;;;;;;;0.70;0.40;;;17.60;99.90;;;;;;4990732;28;20612;-75
2023/07/06 03:52:58;;;;;;;0.98;0.35;;;17.70;99.90;;;;;;4994059;28;20280;-76
2023/07/06 03:55:30;;;;;;;0.70;0.60;;;17.70;99.90;;;;;;4994195;28;20658;-76
2023/07/06 03:58:01;;;;;;;0.50;0.47;;;17.80;99.90;;;;;;4993131;28;20243;-76
2023/07/06 04:00:32;;;;;;;0.60;0.30;;;17.70;99.90;;;;;;4993899;28;20285;-76
2023/07/06 04:03:04;;;;;;;0.50;0.50;;;17.70;99.90;;;;;;4994044;28;20655;-76
2023/07/06 04:05:38;;;;;;;0.40;0.40;;;17.80;99.90;;;;;;4992867;28;20208;-76
2023/07/06 04:08:12;;;;;;;2.33;0.55;;;17.60;99.90;;;;;;4991311;28;20694;-75
2023/07/06 04:10:44;;;;;;;1.80;1.33;;;17.70;99.90;;;;;;4992690;28;20279;-74
2023/07/06 04:13:15;;;;;;;0.50;0.50;;;17.70;99.90;;;;;;4989553;28;20199;-76
2023/07/06 04:15:49;;;;;;;0.47;0.45;;;17.70;99.90;;;;;;4993448;28;20211;-76
2023/07/06 04:18:20;;;;;;;1.30;0.80;;;17.70;99.90;;;;;;4993860;28;20192;-76
2023/07/06 04:20:54;;;;;;;3.15;1.00;;;17.70;99.90;;;;;;4993783;28;20195;-75
2023/07/06 04:23:25;;;;;;;0.82;0.60;;;17.60;99.90;;;;;;4993891;28;20215;-75
2023/07/06 04:25:56;;;;;;;1.23;0.60;;;17.60;99.90;;;;;;4992329;28;20199;-74
2023/07/06 04:28:27;;;;;;;0.40;0.40;;;17.40;99.90;;;;;;4992636;28;20287;-75
2023/07/06 04:30:58;;;;;;;2.65;0.70;;;17.20;99.90;;;;;;4992696;28;20200;-75
2023/07/06 04:33:30;;;;;;;0.90;0.73;;;17.00;99.90;;;;;;4992642;28;20192;-76
2023/07/06 04:36:03;;;;;;;0.70;0.60;;;16.90;99.90;;;;;;4997665;28;20576;-75
2023/07/06 04:38:34;;;;;;;1.23;0.60;;;16.80;99.90;;;;;;4997739;28;20600;-75
2023/07/06 04:41:05;;;;;;;0.70;0.60;;;16.80;99.90;;;;;;4996490;28;20202;-76
2023/07/06 04:43:37;;;;;;;1.83;0.98;;;16.80;99.90;;;;;;4994214;28;20223;-75
2023/07/06 04:46:08;;;;;;;3.33;1.23;;;16.70;99.90;;;;;;4997621;28;20192;-75
2023/07/06 04:48:40;;;;;;;1.13;0.73;;;16.70;99.90;;;;;;4997507;28;20266;-76
2023/07/06 04:51:14;;;;;;;1.60;0.60;;;16.60;99.90;;;;;;4996123;28;20242;-76
2023/07/06 04:53:45;;;;;;;1.67;0.70;;;16.60;99.90;;;;;;4995290;28;20204;-75
2023/07/06 04:56:16;;;;;;;0.90;0.60;;;16.60;99.90;;;;;;4997419;28;20223;-75
2023/07/06 04:58:47;;;;;;;1.80;1.20;;;16.60;99.90;;;;;;4997653;28;20199;-75
2023/07/06 05:01:19;;;;;;;3.35;1.10;;;16.60;99.90;;;;;;4996540;28;20699;-75
2023/07/06 05:03:52;;;;;;;1.58;0.70;;;16.60;99.90;;;;;;4997255;28;20226;-75
2023/07/06 05:06:25;;;;;;;1.00;0.70;;;16.60;99.90;;;;;;4997061;28;20191;-75
2023/07/06 05:08:56;;;;;;;0.90;0.70;;;16.60;99.90;;;;;;4995978;28;20196;-74
2023/07/06 05:11:27;;;;;;;1.20;0.63;;;16.60;99.90;;;;;;4994619;28;20191;-75
2023/07/06 05:13:58;;;;;;;0.95;0.60;;;16.50;99.90;;;;;;4984612;28;20672;-77
2023/07/06 05:16:29;;;;;;;1.13;0.50;;;16.50;99.90;;;;;;4991996;28;20246;-75
2023/07/06 05:19:01;;;;;;;2.95;0.40;;;16.50;99.90;;;;;;4985631;28;20214;-76
2023/07/06 05:21:35;;;;;;;0.95;0.50;;;16.50;99.90;;;;;;4986106;28;20231;-75
2023/07/06 05:24:06;;;;;;;1.10;0.40;;;16.50;99.90;;;;;;4987148;28;20582;-76
2023/07/06 05:26:38;;;;;;;0.77;0.50;;;16.40;99.90;;;;;;4994496;28;20200;-75
2023/07/06 05:29:10;;;;;;;0.82;0.50;;;16.50;99.90;;;;;;4994097;28;20206;-75
2023/07/06 05:31:41;;;;;;;0.75;0.40;;;16.50;99.90;;;;;;4992937;28;20192;-75
2023/07/06 05:34:12;;;;;;;0.80;0.40;;;16.50;99.90;;;;;;4996422;28;20204;-75
2023/07/06 05:36:45;;;;;;;0.30;0.30;;;16.40;99.90;;;;;;4996868;28;20192;-75
2023/07/06 05:39:16;;;;;;;1.67;0.77;;;16.40;99.90;;;;;;4996317;28;20204;-76
2023/07/06 05:41:47;;;;;;;2.30;0.60;;;16.40;99.90;;;;;;4996414;28;20199;-74
2023/07/06 05:44:19;;;;;;;2.95;0.57;;;16.30;99.90;;;;;;4991167;28;20785;-76
2023/07/06 05:46:50;;;;;;;0.38;0.30;;;16.30;99.90;;;;;;4988989;28;20201;-75
2023/07/06 05:49:21;;;;;;;0.43;0.43;;;16.20;99.90;;;;;;4993429;28;20226;-76
2023/07/06 05:51:54;;;;;;;0.43;0.40;;;16.20;99.90;;;;;;4995682;28;20294;-75
2023/07/06 05:54:25;;;;;;;0.88;0.70;;;16.20;99.90;;;;;;4990065;28;20676;-75
2023/07/06 05:56:57;;;;;;;1.13;0.50;;;16.20;99.90;;;;;;4995048;28;20206;-75
2023/07/06 05:59:29;;;;;;;0.95;0.38;;;16.10;99.90;;;;;;4993003;28;20675;-75
2023/07/06 06:02:01;;;;;;;1.33;0.50;;;16.10;99.90;;;;;;4994283;28;20204;-75
2023/07/06 06:04:32;;;;;;;1.42;0.40;;;16.10;99.90;;;;;;4989269;28;20706;-75
2023/07/06 06:07:06;;;;;;;1.23;0.40;;;16.10;99.90;;;;;;4989822;28;20587;-75
2023/07/06 06:09:37;;;;;;;2.42;0.60;;;16.10;99.90;;;;;;4991231;28;20597;-76
2023/07/06 06:12:17;;;;;;;0.40;0.40;;;16.10;99.90;;;;;;4994666;28;20211;-75
2023/07/06 06:14:50;;;;;;;0.35;0.35;;;16.10;99.90;;;;;;4994641;28;20196;-75
2023/07/06 06:17:22;;;;;;;0.40;0.40;;;16.10;99.90;;;;;;4994289;28;20200;-75
2023/07/06 06:19:53;;;;;;;0.40;0.30;;;16.10;99.90;;;;;;4995781;28;20203;-75
2023/07/06 06:22:26;;;;;;;1.13;0.40;;;16.10;99.90;;;;;;4995558;28;20203;-76
2023/07/06 06:24:57;;;;;;;0.45;0.45;;;16.10;99.90;;;;;;4995611;28;20224;-75
2023/07/06 06:27:29;;;;;;;1.05;0.52;;;16.10;99.90;;;;;;4995553;28;20207;-75
2023/07/06 06:30:00;;;;;;;0.45;0.40;;;16.10;99.90;;;;;;4994628;28;20235;-76
2023/07/06 06:32:34;;;;;;;1.30;0.45;;;16.20;99.90;;;;;;4991566;28;20192;-76
2023/07/06 06:35:06;;;;;;;0.45;0.45;;;16.20;99.90;;;;;;4994778;28;20206;-76
2023/07/06 06:37:39;;;;;;;0.40;0.40;;;16.30;99.90;;;;;;4995250;28;20200;-75
2023/07/06 06:40:11;;;;;;;0.60;0.40;;;16.20;99.90;;;;;;4994234;28;20202;-75
2023/07/06 06:42:42;;;;;;;0.40;0.40;;;16.20;99.90;;;;;;4993750;28;20204;-75
2023/07/06 06:45:14;;;;;;;0.80;0.43;;;16.10;99.90;;;;;;4995574;28;20223;-75
2023/07/06 06:47:45;;;;;;;0.50;0.50;;;16.10;99.90;;;;;;4992870;28;20207;-75
2023/07/06 06:50:19;;;;;;;0.93;0.50;;;16.10;99.90;;;;;;4980963;28;20200;-76
2023/07/06 06:52:53;;;;;;;0.40;0.40;;;16.00;99.90;;;;;;4994020;28;20203;-75
2023/07/06 06:55:24;;;;;;;0.30;0.30;;;16.00;99.90;;;;;;4995089;28;20223;-75
2023/07/06 06:57:55;;;;;;;0.47;0.40;;;15.90;99.90;;;;;;4993826;28;20211;-75
2023/07/06 07:00:26;;;;;;;0.40;0.40;;;15.90;99.90;;;;;;4994749;28;20231;-75
2023/07/06 07:02:57;;;;;;;0.82;0.50;;;15.80;99.90;;;;;;4992402;28;20775;-75
2023/07/06 07:05:29;;;;;;;0.60;0.52;;;15.70;99.90;;;;;;4993305;28;20216;-75
2023/07/06 07:08:02;;;;;;;0.45;0.45;;;15.70;99.90;;;;;;4994706;28;20199;-75
2023/07/06 07:10:34;;;;;;;1.33;0.43;;;15.60;99.90;;;;;;4993540;28;20207;-75
2023/07/06 07:13:05;;;;;;;0.93;0.55;;;15.50;99.90;;;;;;4994920;28;20664;-75
2023/07/06 07:15:36;;;;;;;2.17;0.50;;;15.40;99.90;;;;;;4994675;28;20211;-75
2023/07/06 07:18:08;;;;;;;0.50;0.50;;;15.30;99.90;;;;;;4994558;28;20210;-74
2023/07/06 07:20:39;;;;;;;0.88;0.57;;;15.30;99.90;;;;;;4994660;28;20286;-75
2023/07/06 07:23:12;;;;;;;0.57;0.57;;;15.20;99.90;;;;;;4994664;28;20199;-75
2023/07/06 07:25:43;;;;;;;0.63;0.50;;;15.20;99.90;;;;;;4993018;28;20270;-76
2023/07/06 07:28:16;;;;;;;0.75;0.60;;;15.10;99.90;;;;;;4994585;28;20215;-75
2023/07/06 07:30:56;;;;;;;1.48;0.60;;;15.00;99.90;;;;;;4993838;28;20203;-75
2023/07/06 07:33:29;;;;;;;2.03;0.80;;;15.00;99.90;;;;;;4993187;28;20211;-75
2023/07/06 07:36:03;;;;;;;0.75;0.70;;;14.90;99.90;;;;;;4994424;28;20196;-75
2023/07/06 07:38:36;;;;;;;1.00;0.90;;;14.80;99.90;;;;;;4991922;28;20669;-75
2023/07/06 07:41:10;;;;;;;1.35;0.90;;;14.80;99.90;;;;;;4992034;28;20558;-75
2023/07/06 07:43:42;;;;;;;1.95;0.85;;;14.80;99.90;;;;;;4992815;28;20191;-76
2023/07/06 07:46:14;;;;;;;1.05;0.80;;;14.70;99.90;;;;;;4992031;28;20262;-75
2023/07/06 07:48:46;;;;;;;1.02;0.70;;;14.70;99.90;;;;;;4980948;28;20203;-75
2023/07/06 07:51:19;;;;;;;1.15;0.82;;;14.60;99.90;;;;;;4991759;28;20196;-75
2023/07/06 07:53:52;;;;;;;1.35;0.85;;;14.60;99.90;;;;;;4992966;28;20199;-75
2023/07/06 07:56:25;;;;;;;0.93;0.82;;;14.50;99.90;;;;;;4992708;28;20262;-75
2023/07/06 07:58:56;;;;;;;1.23;1.00;;;14.50;99.90;;;;;;4994146;28;20222;-75
2023/07/06 08:01:28;;;;;;;2.72;1.20;;;14.50;99.90;;;;;;4993669;28;20235;-75
2023/07/06 08:03:59;;;;;;;2.47;1.27;;;14.50;99.90;;;;;;4991578;28;20579;-75
2023/07/06 08:06:30;;;;;;;2.08;1.70;;;14.40;99.90;;;;;;4983937;28;20222;-75
2023/07/06 08:09:07;;;;;;;3.08;1.90;;;14.40;99.90;;;;;;4993195;28;20199;-74
2023/07/06 08:11:41;;;;;;;3.55;1.67;;;14.40;99.90;;;;;;4992321;28;20195;-75
2023/07/06 08:14:12;;;;;;;2.63;1.88;;;14.40;99.90;;;;;;4992323;28;20195;-75
2023/07/06 08:16:44;;;;;;;3.60;1.88;;;14.30;99.90;;;;;;4992616;28;20200;-75
2023/07/06 08:19:15;;;;;;;2.63;2.00;;;14.30;99.90;;;;;;4993694;28;20671;-75
2023/07/06 08:21:46;;;;;;;2.58;2.05;;;14.20;99.90;;;;;;4993572;28;20200;-74
2023/07/06 08:24:19;;;;;;;3.13;2.08;;;14.20;99.90;;;;;;4992426;28;20206;-75
2023/07/06 08:26:50;;;;;;;4.47;2.15;;;14.20;99.90;;;;;;4991906;28;20225;-75
2023/07/06 08:29:22;;;;;;;3.10;2.35;;;14.20;99.90;;;;;;4993605;28;20199;-75
2023/07/06 08:31:56;;;;;;;3.38;2.40;;;14.10;99.90;;;;;;4992475;28;20441;-75
2023/07/06 08:34:27;;;;;;;5.38;3.08;;;14.10;99.90;;;;;;4993682;28;20204;-75
2023/07/06 08:36:58;;;;;;;5.80;3.15;;;14.10;99.90;;;;;;4992428;28;20207;-75
2023/07/06 08:39:33;;;;;;;2.90;2.30;;;14.10;99.90;;;;;;4993557;28;20303;-75
2023/07/06 08:42:08;;;;;;;3.13;2.10;;;14.10;99.90;;;;;;4993213;28;20200;-75
2023/07/06 08:44:40;;;;;;;2.00;1.60;;;14.10;99.90;;;;;;4992484;28;20198;-75
2023/07/06 08:47:15;;;;;;;2.80;1.40;;;14.00;99.90;;;;;;4993570;28;20196;-75
2023/07/06 08:49:46;;;;;;;2.42;1.30;;;14.00;99.90;;;;;;4991852;28;20293;-75
2023/07/06 08:52:19;;;;;;;1.70;1.27;;;14.00;99.90;;;;;;4993575;28;20246;-74
2023/07/06 08:54:55;;;;;;;1.63;1.20;;;14.00;99.90;;;;;;4993196;28;20235;-75
2023/07/06 08:57:30;;;;;;;2.38;1.23;;;14.00;99.90;;;;;;4992111;28;20203;-75
2023/07/06 09:00:02;;;;;;;2.80;1.50;;;14.00;99.90;;;;;;4979776;28;20266;-74
2023/07/06 09:02:36;;;;;;;1.65;1.38;;;14.00;99.90;;;;;;4993521;28;20553;-75
2023/07/06 09:05:16;;;;;;;1.95;1.40;;;14.00;99.90;;;;;;4993329;28;20646;-75
2023/07/06 09:07:48;;;;;;;2.40;1.30;;;14.00;99.90;;;;;;4992079;28;20612;-75
2023/07/06 09:10:23;;;;;;;2.72;1.48;;;14.00;99.90;;;;;;4990369;28;20208;-75
2023/07/06 09:12:56;;;;;;;2.33;1.50;;;14.00;99.90;;;;;;4992821;28;20282;-75
2023/07/06 09:15:31;;;;;;;2.58;1.77;;;14.00;99.90;;;;;;4993035;28;20682;-76
2023/07/06 09:18:03;;;;;;;2.00;1.58;;;13.90;99.90;;;;;;4992067;28;20563;-75
2023/07/06 09:20:37;;;;;;;3.88;2.45;;;13.80;99.90;;;;;;4990424;28;20226;-76
2023/07/06 09:23:08;;;;;;;3.47;2.33;;;13.70;99.90;;;;;;4988877;28;20250;-75
2023/07/06 09:25:44;;;;;;;3.63;2.58;;;13.60;99.90;;;;;;5000159;28;20683;-76
2023/07/06 09:28:19;;;;;;;3.83;2.30;;;13.50;99.90;;;;;;4986181;28;20200;-76
2023/07/06 09:30:52;;;;;;;4.00;2.53;;;13.50;99.90;;;;;;4989540;28;21294;-76
2023/07/06 09:33:25;;;;;;;4.22;2.50;;;13.40;99.90;;;;;;4987920;28;20710;-75
2023/07/06 09:35:57;;;;;;;3.40;2.20;;;13.40;99.90;;;;;;4995288;28;20226;-75
2023/07/06 09:38:30;;;;;;;4.55;2.10;;;13.30;99.90;;;;;;4995076;28;20278;-75
2023/07/06 09:41:03;;;;;;;3.38;2.05;;;13.30;99.90;;;;;;4985247;28;20199;-76
2023/07/06 09:43:41;;;;;;;3.95;2.08;;;13.30;99.90;;;;;;4989605;28;20206;-76
2023/07/06 09:46:14;;;;;;;4.70;2.50;;;13.30;99.90;;;;;;4992375;28;20229;-75
2023/07/06 09:48:45;;;;;;;4.25;2.40;;;13.20;99.90;;;;;;4994670;28;20223;-75
2023/07/06 09:51:21;;;;;;;4.82;2.80;;;13.10;99.90;;;;;;4990122;28;20203;-76
2023/07/06 09:53:57;;;;;;;4.35;2.53;;;13.10;99.90;;;;;;4994728;28;20206;-76
2023/07/06 09:56:31;;;;;;;4.82;2.50;;;13.00;99.90;;;;;;4996134;28;20593;-76
2023/07/06 09:59:03;;;;;;;6.50;3.20;;;13.00;99.90;;;;;;4996562;28;20573;-76
2023/07/06 10:01:44;;;;;;;5.65;3.28;;;12.90;99.90;;;;;;4990623;28;20246;-76
2023/07/06 10:04:43;;;;;;;5.72;3.17;;;12.80;99.90;;;;;;4989625;28;20195;-76
2023/07/06 10:07:23;;;;;;;5.47;3.38;;;12.70;99.90;;;;;;4993803;28;20204;-75
2023/07/06 10:10:02;;;;;;;5.53;3.50;;;12.60;99.90;;;;;;4995646;28;20235;-75
2023/07/06 10:12:41;;;;;;;7.28;4.28;;;12.60;99.90;;;;;;4994193;28;20208;-76
2023/07/06 10:15:25;;;;;;;8.63;4.18;;;12.60;99.90;;;;;;4994800;28;20545;-76
2023/07/06 10:18:04;;;;;;;8.50;3.92;;;12.50;99.90;;;;;;4995583;28;20200;-75
2023/07/06 10:20:44;;;;;;;7.78;3.63;;;12.60;99.90;;;;;;4995789;28;20199;-76
2023/07/06 10:23:26;;;;;;;7.28;3.72;;;12.50;99.90;;;;;;4993573;28;20770;-76
2023/07/06 10:26:09;;;;;;;5.38;3.40;;;12.50;99.90;;;;;;4989669;28;20338;-76
2023/07/06 10:28:46;;;;;;;5.97;3.50;;;12.50;99.90;;;;;;4993787;28;20200;-75
2023/07/06 10:31:21;;;;;;;6.43;3.15;;;12.50;99.90;;;;;;4992286;28;20203;-75
2023/07/06 10:33:58;;;;;;;5.07;3.00;;;12.40;99.90;;;;;;4993189;28;20222;-76
2023/07/06 10:36:34;;;;;;;4.10;2.63;;;12.40;99.90;;;;;;4993932;28;20685;-75
2023/07/06 10:39:14;;;;;;;4.03;2.58;;;12.40;99.90;;;;;;4991940;28;20659;-75
2023/07/06 10:41:49;;;;;;;4.32;2.63;;;12.40;99.90;;;;;;4992303;28;20204;-75
2023/07/06 10:44:52;;;;;;;2.97;2.38;;;12.40;99.90;;;;;;4994849;28;20570;-75
2023/07/06 10:47:44;;;;;;;4.85;2.80;;;12.40;99.90;;;;;;4990510;28;20222;-75
2023/07/06 10:50:30;;;;;;;4.18;2.40;;;12.30;99.90;;;;;;4991633;28;20234;-76
2023/07/06 10:53:10;;;;;;;4.00;2.22;;;12.30;99.90;;;;;;4994883;28;20565;-75
2023/07/06 10:55:41;;;;;;;4.38;2.25;;;12.30;99.90;;;;;;4993245;28;20223;-75
2023/07/06 10:58:27;;;;;;;4.30;2.20;;;12.30;99.90;;;;;;4994974;28;20200;-75
2023/07/06 11:01:02;;;;;;;5.03;2.15;;;12.30;99.90;;;;;;4994753;28;20322;-75
2023/07/06 11:03:34;;;;;;;3.65;2.53;;;12.30;99.90;;;;;;4982193;28;20194;-75
2023/07/06 11:06:07;;;;;;;3.58;2.45;;;12.30;99.90;;;;;;4993444;28;20710;-75
2023/07/06 11:09:14;;;;;;;3.22;2.10;;;12.30;99.90;;;;;;4992828;28;20198;-75
2023/07/06 11:12:05;;;;;;;2.10;1.70;;;12.30;99.90;;;;;;4983465;28;20191;-76
2023/07/06 11:14:44;;;;;;;1.70;1.60;;;12.30;99.90;;;;;;4984011;28;20296;-75
2023/07/06 11:17:33;;;;;;;1.65;1.20;;;12.30;99.90;;;;;;4991654;28;20259;-74
2023/07/06 11:20:11;;;;;;;1.10;1.00;;;12.30;99.90;;;;;;4989524;28;20203;-74
2023/07/06 11:22:46;;;;;;;1.30;1.20;;;12.40;99.90;;;;;;4989684;28;20198;-74
2023/07/06 11:25:19;;;;;;;1.25;1.10;;;12.40;99.90;;;;;;4992612;28;20242;-74
2023/07/06 11:27:53;;;;;;;1.00;1.00;;;12.40;99.90;;;;;;4990235;28;20262;-75
2023/07/06 11:30:33;;;;;;;1.08;1.00;;;12.40;99.90;;;;;;4993106;28;20694;-76
2023/07/06 11:33:19;;;;;;;1.00;1.00;;;12.40;99.90;;;;;;4994554;28;20637;-75
2023/07/06 11:36:03;;;;;;;0.85;0.85;;;12.40;99.90;;;;;;4994514;28;20287;-76
2023/07/06 11:38:56;;;;;;;1.48;1.10;;;12.30;99.90;;;;;;4993653;28;20207;-76
2023/07/06 11:41:44;;;;;;;1.30;1.05;;;12.30;99.90;;;;;;4992983;28;20611;-75
2023/07/06 11:44:32;;;;;;;0.80;0.80;;;12.30;99.90;;;;;;4992596;28;20226;-75
2023/07/06 11:47:30;;;;;;;0.80;0.80;;;12.30;99.90;;;;;;4993437;28;20223;-76
2023/07/06 11:50:09;;;;;;;0.82;0.82;;;12.20;99.90;;;;;;4993230;28;20200;-75
2023/07/06 11:52:44;;;;;;;0.80;0.80;;;12.20;99.90;;;;;;4994779;28;20191;-76
2023/07/06 11:55:29;;;;;;;1.10;1.00;;;12.20;99.90;;;;;;4993252;28;20226;-76
2023/07/06 11:58:18;;;;;;;0.95;0.88;;;12.20;99.90;;;;;;4994267;28;20274;-76
2023/07/06 12:00:52;;;;;;;0.70;0.70;;;12.20;99.90;;;;;;4993334;28;20239;-76
2023/07/06 12:03:26;;;;;;;1.00;0.80;;;12.20;99.90;;;;;;4994191;28;20200;-75
2023/07/06 12:06:03;;;;;;;1.20;0.93;;;12.20;99.90;;;;;;4992201;28;20216;-76
2023/07/06 12:08:37;;;;;;;1.00;0.90;;;12.10;99.90;;;;;;4993285;28;20199;-75
2023/07/06 12:11:15;;;;;;;0.95;0.80;;;12.10;99.90;;;;;;4994094;28;20245;-75
2023/07/06 12:13:48;;;;;;;2.25;0.70;;;12.10;99.90;;;;;;4993984;28;20195;-76
2023/07/06 12:16:21;;;;;;;1.42;0.98;;;12.10;99.90;;;;;;4993988;28;20648;-75
2023/07/06 12:18:58;;;;;;;0.90;0.82;;;12.10;99.90;;;;;;4992847;28;20205;-76
2023/07/06 12:21:34;;;;;;;1.75;0.70;;;12.10;99.90;;;;;;4993405;28;20206;-75
2023/07/06 12:24:06;;;;;;;0.70;0.70;;;12.00;99.90;;;;;;4993529;28;20200;-76
2023/07/06 12:26:43;;;;;;;1.08;0.98;;;12.00;99.90;;;;;;4993927;28;20254;-76
2023/07/06 12:29:18;;;;;;;1.75;0.90;;;12.00;99.90;;;;;;4993941;28;20206;-75
2023/07/06 12:31:51;;;;;;;0.70;0.70;;;12.00;99.90;;;;;;4992852;28;20198;-75
2023/07/06 12:34:29;;;;;;;0.93;0.82;;;11.90;99.90;;;;;;4992292;28;20202;-75
2023/07/06 12:37:02;;;;;;;0.90;0.70;;;11.90;99.90;;;;;;4989635;28;20246;-75
2023/07/06 12:39:39;;;;;;;0.73;0.73;;;11.90;99.90;;;;;;4992948;28;20234;-76
2023/07/06 12:42:13;;;;;;;0.93;0.70;;;12.00;99.90;;;;;;4989121;28;20196;-76
2023/07/06 12:44:45;;;;;;;0.85;0.70;;;12.00;99.90;;;;;;4992721;28;20210;-74
2023/07/06 12:47:28;;;;;;;0.93;0.70;;;12.00;99.90;;;;;;4993023;28;20219;-75
2023/07/06 12:50:04;;;;;;;0.70;0.60;;;12.10;99.90;;;;;;4991916;28;20196;-75
2023/07/06 12:52:38;;;;;;;0.60;0.60;;;12.10;99.90;;;;;;4989321;28;20202;-75
2023/07/06 12:55:15;;;;;;;0.60;0.60;;;12.20;99.90;;;;;;4992158;28;20306;-75
2023/07/06 12:57:46;;;;;;;0.88;0.68;;;12.20;99.90;;;;;;4996777;28;20246;-75
2023/07/06 13:00:21;;;;;;;1.38;0.80;;;12.20;99.90;;;;;;4995728;28;20605;-75
2023/07/06 13:02:57;;;;;;;1.00;0.70;;;12.30;99.90;;;;;;4993772;28;20199;-75
2023/07/06 13:05:31;;;;;;;1.13;0.70;;;12.30;99.90;;;;;;4994405;28;20278;-75
2023/07/06 13:08:08;;;;;;;0.60;0.60;;;12.30;99.90;;;;;;4991119;28;20222;-76
2023/07/06 13:10:41;;;;;;;0.50;0.50;;;12.30;99.90;;;;;;4993544;28;20695;-76
2023/07/06 13:13:20;;;;;;;0.70;0.50;;;12.30;99.90;;;;;;4994014;28;20230;-75
2023/07/06 13:15:57;;;;;;;0.95;0.50;;;12.30;99.90;;;;;;4996731;28;20204;-76
2023/07/06 13:18:28;;;;;;;0.47;0.47;;;12.30;99.90;;;;;;4995433;28;20203;-74
2023/07/06 13:21:00;;;;;;;0.77;0.52;;;12.30;99.90;;;;;;4996414;28;20571;-75
2023/07/06 13:23:33;;;;;;;1.05;0.50;;;12.20;99.90;;;;;;4995378;28;20214;-75
2023/07/06 13:26:05;;;;;;;0.82;0.60;;;12.20;99.90;;;;;;4994521;28;20196;-76